To NAV CANADA Home Page Login to a new session Search on AWWS site Disclaimer Vers la page française équivalente Tips FAQ What's new on the site To the Forecasts and Observations / NOTAM section To "File a Flight Plan" website Publications and other links Update of the User's profile FIC Telephone Numbers My Weather Data Folder Route Weather Data Regional Weather Data Local Weather Data To the Forecasts and Observations / NOTAM section
Request Generated 04/25/2019 at 08:28:23 UTC . Weather information available at that time is displayed.

METAR/TAF

DEASE LAKE/BC    (show WxCam)

METAR CYDL 250800Z AUTO VRB02KT 9SM CLR M05/M12 A3023 RMK SLP267=
METAR CYDL 250700Z AUTO 24005KT 9SM CLR M04/M12 A3021 RMK SLP261=
METAR CYDL 250600Z AUTO 00000KT 9SM CLR M04/M11 A3020 RMK SLP261=

*** REMARK        : Forecast period has ended; this was the last TAF issued
*** REMARQUE : La période de prévision est échue; ceci était le dernier TAF qui a été émis
TAF AMD CYDL 250026Z 2500/2502 22008KT P6SM SCT020 SCT060 TEMPO
2500/2502 24010G20KT 1SM -SHRASN BR BKN012
RMK FCST BASED ON AUTO OBS. NXT FCST WILL BE ISSUED AT 251545Z=
Your time UTC time
Weather data provided by Environment Canada and NAV CANADA